createdAt,value
2022-09-10T00:01:01.213Z,17.20
2022-09-10T00:03:28.259Z,17.20
2022-09-10T00:05:55.394Z,17.10
2022-09-10T00:08:22.521Z,17.10
2022-09-10T00:10:52.170Z,17.10
2022-09-10T00:13:22.188Z,17.10
2022-09-10T00:15:53.955Z,17.10
2022-09-10T00:18:22.673Z,17.10
2022-09-10T00:20:52.591Z,17.10
2022-09-10T00:23:23.857Z,17.00
2022-09-10T00:25:53.497Z,17.00
2022-09-10T00:28:21.975Z,17.00
2022-09-10T00:30:51.421Z,17.00
2022-09-10T00:33:19.800Z,16.90
2022-09-10T00:35:47.442Z,17.00
2022-09-10T00:38:18.612Z,16.90
2022-09-10T00:40:46.422Z,16.90
2022-09-10T00:43:21.835Z,16.90
2022-09-10T00:45:55.525Z,16.90
2022-09-10T00:48:32.327Z,16.90
2022-09-10T00:51:04.447Z,16.90
2022-09-10T00:53:32.160Z,16.80
2022-09-10T00:56:05.803Z,16.80
2022-09-10T00:58:33.034Z,16.80
2022-09-10T01:01:02.533Z,16.80
2022-09-10T01:03:31.232Z,16.80
2022-09-10T01:05:59.106Z,16.80
2022-09-10T01:08:27.634Z,16.80
2022-09-10T01:11:03.507Z,16.80
2022-09-10T01:13:45.901Z,16.80
2022-09-10T01:16:22.807Z,16.80
2022-09-10T01:18:55.696Z,16.70
2022-09-10T01:21:46.908Z,16.70
2022-09-10T01:24:35.831Z,16.70
2022-09-10T01:27:08.485Z,16.70
2022-09-10T01:29:41.612Z,16.70
2022-09-10T01:32:33.755Z,16.70
2022-09-10T01:35:20.001Z,16.70
2022-09-10T01:37:57.448Z,16.70
2022-09-10T01:40:29.991Z,16.70
2022-09-10T01:43:11.152Z,16.70
2022-09-10T01:46:08.838Z,16.70
2022-09-10T01:49:00.832Z,16.70
2022-09-10T01:51:39.837Z,16.70
2022-09-10T01:54:28.645Z,16.70
2022-09-10T01:57:18.221Z,16.70
2022-09-10T01:59:51.329Z,16.60
2022-09-10T02:02:27.113Z,16.60
2022-09-10T02:04:55.257Z,16.60
2022-09-10T02:07:24.997Z,16.60
2022-09-10T02:09:55.688Z,16.60
2022-09-10T02:12:23.948Z,16.60
2022-09-10T02:14:54.168Z,16.60
2022-09-10T02:17:23.580Z,16.60
2022-09-10T02:19:52.619Z,16.60
2022-09-10T02:22:23.986Z,16.60
2022-09-10T02:24:51.873Z,16.60
2022-09-10T02:27:19.211Z,16.60
2022-09-10T02:29:46.321Z,16.60
2022-09-10T02:32:13.497Z,16.60
2022-09-10T02:34:40.692Z,16.60
2022-09-10T02:37:07.769Z,16.50
2022-09-10T02:39:35.718Z,16.50
2022-09-10T02:42:02.844Z,16.50
2022-09-10T02:44:29.882Z,16.50
2022-09-10T02:46:56.985Z,16.50
2022-09-10T02:49:24.089Z,16.50
2022-09-10T02:51:51.685Z,16.50
2022-09-10T02:54:22.728Z,16.50
2022-09-10T02:56:50.002Z,16.50
2022-09-10T02:59:20.334Z,16.50
2022-09-10T03:01:48.430Z,16.50
2022-09-10T03:04:17.007Z,16.50
2022-09-10T03:06:44.940Z,16.50
2022-09-10T03:09:11.967Z,16.50
2022-09-10T03:11:40.744Z,16.50
2022-09-10T03:14:10.427Z,16.40
2022-09-10T03:16:37.536Z,16.40
2022-09-10T03:19:04.635Z,16.40
2022-09-10T03:21:31.688Z,16.40
2022-09-10T03:23:58.726Z,16.40
2022-09-10T03:26:26.074Z,16.40
2022-09-10T03:28:53.602Z,16.40
2022-09-10T03:31:21.859Z,16.40
2022-09-10T03:33:49.337Z,16.40
2022-09-10T03:36:18.121Z,16.40
2022-09-10T03:38:45.229Z,16.40
2022-09-10T03:41:12.400Z,16.40
2022-09-10T03:43:39.533Z,16.40
2022-09-10T03:46:07.105Z,16.30
2022-09-10T03:48:34.753Z,16.40
2022-09-10T03:51:01.800Z,16.30
2022-09-10T03:53:28.828Z,16.30
2022-09-10T03:55:56.404Z,16.30
2022-09-10T03:58:23.812Z,16.30
2022-09-10T04:00:51.088Z,16.30
2022-09-10T04:03:19.912Z,16.30
2022-09-10T04:05:47.276Z,16.30
2022-09-10T04:08:15.541Z,16.30
2022-09-10T04:10:44.384Z,16.30
2022-09-10T04:13:12.088Z,16.30
2022-09-10T04:15:40.297Z,16.30
2022-09-10T04:18:08.514Z,16.30
2022-09-10T04:20:36.699Z,16.30
2022-09-10T04:23:04.227Z,16.30
2022-09-10T04:25:31.699Z,16.30
2022-09-10T04:27:58.811Z,16.30
2022-09-10T04:30:26.277Z,16.20
2022-09-10T04:32:54.960Z,16.20
2022-09-10T04:35:22.053Z,16.20
2022-09-10T04:37:49.204Z,16.20
2022-09-10T04:40:16.327Z,16.20
2022-09-10T04:42:43.441Z,16.20
2022-09-10T04:45:10.796Z,16.20
2022-09-10T04:47:38.142Z,16.20
2022-09-10T04:50:06.501Z,16.20
2022-09-10T04:52:34.737Z,16.20
2022-09-10T04:55:01.791Z,16.20
2022-09-10T04:57:29.002Z,16.20
2022-09-10T04:59:56.056Z,16.20
2022-09-10T05:02:23.302Z,16.20
2022-09-10T05:04:50.947Z,16.10
2022-09-10T05:07:18.169Z,16.20
2022-09-10T05:09:45.580Z,16.10
2022-09-10T05:12:12.651Z,16.10
2022-09-10T05:14:39.687Z,16.10
2022-09-10T05:17:06.795Z,16.10
2022-09-10T05:19:33.893Z,16.10
2022-09-10T05:22:01.027Z,16.20
2022-09-10T05:24:28.185Z,16.10
2022-09-10T05:26:55.516Z,16.10
2022-09-10T05:29:22.694Z,16.10
2022-09-10T05:31:49.749Z,16.10
2022-09-10T05:34:17.717Z,16.10
2022-09-10T05:36:44.788Z,16.10
2022-09-10T05:39:12.000Z,16.10
2022-09-10T05:41:39.158Z,16.10
2022-09-10T05:44:06.424Z,16.10
2022-09-10T05:46:33.558Z,16.10
2022-09-10T05:49:00.608Z,16.10
2022-09-10T05:51:29.992Z,16.10
2022-09-10T05:53:57.843Z,16.10
2022-09-10T05:56:28.180Z,16.10
2022-09-10T05:58:55.239Z,16.10
2022-09-10T06:01:22.269Z,16.10
2022-09-10T06:03:51.087Z,16.10
2022-09-10T06:06:19.660Z,16.10
2022-09-10T06:08:51.259Z,16.10
2022-09-10T06:11:18.255Z,16.10
2022-09-10T06:13:45.332Z,16.10
2022-09-10T06:16:12.974Z,16.10
2022-09-10T06:18:40.689Z,16.10
2022-09-10T06:21:16.152Z,16.10
2022-09-10T06:23:44.278Z,16.10
2022-09-10T06:26:20.142Z,16.10
2022-09-10T06:28:47.824Z,16.10
2022-09-10T06:31:17.952Z,16.10
2022-09-10T06:33:46.885Z,16.10
2022-09-10T06:36:14.503Z,16.10
2022-09-10T06:38:41.969Z,16.10
2022-09-10T06:41:17.127Z,16.10
2022-09-10T06:43:44.323Z,16.10
2022-09-10T06:46:44.142Z,16.10
2022-09-10T06:49:05.008Z,16.10
2022-09-10T06:51:33.180Z,16.10
2022-09-10T06:54:01.153Z,16.20
2022-09-10T06:56:28.227Z,16.10
2022-09-10T06:59:02.128Z,16.20
2022-09-10T07:01:30.129Z,16.20
2022-09-10T07:04:00.088Z,16.20
2022-09-10T07:06:28.580Z,16.20
2022-09-10T07:08:57.138Z,16.20
2022-09-10T07:11:26.231Z,16.20
2022-09-10T07:13:53.987Z,16.20
2022-09-10T07:16:22.932Z,16.20
2022-09-10T07:18:51.452Z,16.20
2022-09-10T07:21:19.401Z,16.20
2022-09-10T07:23:51.950Z,16.20
2022-09-10T07:26:20.175Z,16.20
2022-09-10T07:28:47.800Z,16.20
2022-09-10T07:31:29.857Z,16.20
2022-09-10T07:33:58.085Z,16.20
2022-09-10T07:36:25.661Z,16.20
2022-09-10T07:38:54.387Z,16.20
2022-09-10T07:41:22.353Z,16.20
2022-09-10T07:43:53.703Z,16.30
2022-09-10T07:46:22.051Z,16.20
2022-09-10T07:48:54.512Z,16.30
2022-09-10T07:51:21.654Z,16.30
2022-09-10T07:53:53.808Z,16.30
2022-09-10T07:56:21.337Z,16.30
2022-09-10T07:58:48.467Z,16.30
2022-09-10T08:01:16.098Z,16.40
2022-09-10T08:03:43.281Z,16.40
2022-09-10T08:06:10.452Z,16.40
2022-09-10T08:08:39.909Z,16.40
2022-09-10T08:11:15.035Z,16.40
2022-09-10T08:13:47.246Z,16.40
2022-09-10T08:16:17.171Z,16.40
2022-09-10T08:18:44.244Z,16.50
2022-09-10T08:21:14.939Z,16.50
2022-09-10T08:23:43.819Z,16.50
2022-09-10T08:26:10.988Z,16.50
2022-09-10T08:28:38.661Z,16.50
2022-09-10T08:31:11.773Z,16.50
2022-09-10T08:33:39.812Z,16.60
2022-09-10T08:36:10.569Z,16.60
2022-09-10T08:38:40.141Z,16.60
2022-09-10T08:41:28.439Z,16.70
2022-09-10T08:44:20.146Z,16.70
2022-09-10T08:47:13.100Z,16.70
2022-09-10T08:49:49.124Z,16.70
2022-09-10T08:52:29.251Z,16.70
2022-09-10T08:55:04.962Z,16.70
2022-09-10T08:57:53.990Z,16.80
2022-09-10T09:00:24.127Z,16.80
2022-09-10T09:03:01.355Z,16.70
2022-09-10T09:05:35.859Z,16.70
2022-09-10T09:08:06.321Z,16.80
2022-09-10T09:10:40.649Z,16.70
2022-09-10T09:13:38.542Z,16.80
2022-09-10T09:16:17.487Z,16.80
2022-09-10T09:19:07.564Z,16.80
2022-09-10T09:21:54.248Z,16.80
2022-09-10T09:24:24.297Z,16.80
2022-09-10T09:27:01.182Z,16.80
2022-09-10T09:29:43.765Z,16.80
2022-09-10T09:32:16.024Z,16.90
2022-09-10T09:34:56.578Z,16.90
2022-09-10T09:37:29.432Z,16.90
2022-09-10T09:40:06.261Z,16.90
2022-09-10T09:43:09.647Z,16.90
2022-09-10T09:45:39.306Z,16.90
2022-09-10T09:48:09.637Z,16.90
2022-09-10T09:50:42.253Z,16.90
2022-09-10T09:53:22.017Z,17.00
2022-09-10T09:56:03.928Z,17.00
2022-09-10T09:58:36.792Z,17.10
2022-09-10T10:01:04.020Z,17.10
2022-09-10T10:03:35.765Z,17.10
2022-09-10T10:06:05.134Z,17.20
2022-09-10T10:08:46.393Z,17.30
2022-09-10T10:11:20.458Z,17.30
2022-09-10T10:13:51.536Z,17.30
2022-09-10T10:16:26.914Z,17.30
2022-09-10T10:18:54.081Z,17.30
2022-09-10T10:21:33.169Z,17.30
2022-09-10T10:24:01.072Z,17.40
2022-09-10T10:26:34.859Z,17.30
2022-09-10T10:29:18.526Z,17.40
2022-09-10T10:31:48.074Z,17.40
2022-09-10T10:34:46.836Z,17.40
2022-09-10T10:37:26.475Z,17.40
2022-09-10T10:40:05.327Z,17.40
2022-09-10T10:42:37.750Z,17.40
2022-09-10T10:45:42.177Z,17.40
2022-09-10T10:48:48.897Z,17.50
2022-09-10T10:51:42.401Z,17.40
2022-09-10T10:54:27.861Z,17.50
2022-09-10T10:57:01.039Z,17.50
2022-09-10T10:59:54.284Z,17.50
2022-09-10T11:02:21.356Z,17.50
2022-09-10T11:04:54.253Z,17.50
2022-09-10T11:07:25.789Z,17.60
2022-09-10T11:10:25.251Z,17.60
2022-09-10T11:13:13.745Z,17.60
2022-09-10T11:16:05.747Z,17.60
2022-09-10T11:18:58.119Z,17.60
2022-09-10T11:21:25.217Z,17.70
2022-09-10T11:24:18.967Z,17.70
2022-09-10T11:27:05.372Z,17.70
2022-09-10T11:29:48.489Z,17.70
2022-09-10T11:32:32.027Z,17.70
2022-09-10T11:35:15.536Z,17.80
2022-09-10T11:37:57.884Z,17.80
2022-09-10T11:40:33.623Z,17.90
2022-09-10T11:43:10.646Z,17.90
2022-09-10T11:45:54.969Z,17.90
2022-09-10T11:48:40.895Z,18.00
2022-09-10T11:51:20.558Z,18.00
2022-09-10T11:53:51.374Z,18.10
2022-09-10T11:56:21.222Z,18.10
2022-09-10T11:59:27.151Z,18.20
2022-09-10T12:02:25.255Z,18.20
2022-09-10T12:05:07.437Z,18.30
2022-09-10T12:07:44.430Z,18.30
2022-09-10T12:10:14.368Z,18.40
2022-09-10T12:12:45.122Z,18.40
2022-09-10T12:15:23.944Z,18.50
2022-09-10T12:18:12.180Z,18.50
2022-09-10T12:20:50.339Z,18.50
2022-09-10T12:23:42.651Z,18.50
2022-09-10T12:26:14.485Z,18.50
2022-09-10T12:28:41.866Z,18.60
2022-09-10T12:31:22.454Z,18.60
2022-09-10T12:33:54.345Z,18.60
2022-09-10T12:36:27.146Z,18.70
2022-09-10T12:39:20.806Z,18.80
2022-09-10T12:41:47.901Z,18.90
2022-09-10T12:44:29.094Z,18.90
2022-09-10T12:47:34.987Z,19.00
2022-09-10T12:50:07.061Z,19.00
2022-09-10T12:52:49.341Z,19.00
2022-09-10T12:55:49.247Z,19.00
2022-09-10T12:58:34.917Z,19.00
2022-09-10T13:01:10.718Z,19.00
2022-09-10T13:03:46.890Z,19.10
2022-09-10T13:06:15.619Z,19.10
2022-09-10T13:08:45.531Z,19.10
2022-09-10T13:11:22.615Z,19.10
2022-09-10T13:13:52.425Z,19.20
2022-09-10T13:16:36.760Z,19.10
2022-09-10T13:19:13.043Z,19.20
2022-09-10T13:21:46.681Z,19.20
2022-09-10T13:24:38.519Z,19.20
2022-09-10T13:27:26.376Z,19.30
2022-09-10T13:30:10.310Z,19.30
2022-09-10T13:32:48.377Z,19.30
2022-09-10T13:35:22.632Z,19.40
2022-09-10T13:38:26.883Z,19.40
2022-09-10T13:41:14.777Z,19.40
2022-09-10T13:44:25.806Z,19.40
2022-09-10T13:46:57.392Z,19.50
2022-09-10T13:49:50.580Z,19.50
2022-09-10T13:52:22.311Z,19.50
2022-09-10T13:54:55.808Z,19.40
2022-09-10T13:57:40.185Z,19.40
2022-09-10T14:00:14.533Z,19.50
2022-09-10T14:02:50.894Z,19.50
2022-09-10T14:05:34.001Z,19.50
2022-09-10T14:08:12.557Z,19.50
2022-09-10T14:10:53.100Z,19.50
2022-09-10T14:13:28.452Z,19.60
2022-09-10T14:15:58.677Z,19.60
2022-09-10T14:18:43.482Z,19.60
2022-09-10T14:21:13.504Z,19.60
2022-09-10T14:23:48.205Z,19.60
2022-09-10T14:26:23.706Z,19.60
2022-09-10T14:29:22.054Z,19.60
2022-09-10T14:31:49.330Z,19.60
2022-09-10T14:34:33.613Z,19.60
2022-09-10T14:37:02.266Z,19.50
2022-09-10T14:39:30.035Z,19.50
2022-09-10T14:42:27.366Z,19.50
2022-09-10T14:44:54.888Z,19.50
2022-09-10T14:47:37.275Z,19.50
2022-09-10T14:50:27.910Z,19.50
2022-09-10T14:52:55.541Z,19.50
2022-09-10T14:55:24.176Z,19.40
2022-09-10T14:57:55.852Z,19.50
2022-09-10T15:00:23.954Z,19.40
2022-09-10T15:02:56.105Z,19.40
2022-09-10T15:05:24.774Z,19.50
2022-09-10T15:07:51.876Z,19.40
2022-09-10T15:10:19.008Z,19.40
2022-09-10T15:12:49.957Z,19.40
2022-09-10T15:15:18.158Z,19.50
2022-09-10T15:17:45.516Z,19.50
2022-09-10T15:20:14.802Z,19.50
2022-09-10T15:22:41.965Z,19.50
2022-09-10T15:25:35.978Z,19.50
2022-09-10T15:28:05.687Z,19.50
2022-09-10T15:30:32.766Z,19.50
2022-09-10T15:33:00.210Z,19.50
2022-09-10T15:35:27.295Z,19.50
2022-09-10T15:37:54.370Z,19.60
2022-09-10T15:40:21.426Z,19.60
2022-09-10T15:42:48.717Z,19.60
2022-09-10T15:45:15.880Z,19.60
2022-09-10T15:47:43.236Z,19.60
2022-09-10T15:50:15.766Z,19.60
2022-09-10T15:52:45.034Z,19.60
2022-09-10T15:55:12.920Z,19.60
2022-09-10T15:57:41.160Z,19.60
2022-09-10T16:00:09.172Z,19.60
2022-09-10T16:02:36.339Z,19.60
2022-09-10T16:05:04.460Z,19.60
2022-09-10T16:07:31.543Z,19.60
2022-09-10T16:09:58.951Z,19.60
2022-09-10T16:12:27.615Z,19.60
2022-09-10T16:14:55.512Z,19.60
2022-09-10T16:17:22.658Z,19.60
2022-09-10T16:19:51.425Z,19.60
2022-09-10T16:22:20.686Z,19.60
2022-09-10T16:24:48.242Z,19.60
2022-09-10T16:27:17.481Z,19.60
2022-09-10T16:29:46.407Z,19.60
2022-09-10T16:32:13.775Z,19.60
2022-09-10T16:34:40.874Z,19.60
2022-09-10T16:37:08.761Z,19.60
2022-09-10T16:39:35.841Z,19.60
2022-09-10T16:42:02.919Z,19.60
2022-09-10T16:44:31.045Z,19.60
2022-09-10T16:46:59.448Z,19.60
2022-09-10T16:49:27.544Z,19.60
2022-09-10T16:51:57.427Z,19.60
2022-09-10T16:54:26.602Z,19.60
2022-09-10T16:56:53.976Z,19.60
2022-09-10T16:59:23.141Z,19.60
2022-09-10T17:01:52.183Z,19.60
2022-09-10T17:04:27.562Z,19.60
2022-09-10T17:06:57.600Z,19.60
2022-09-10T17:09:25.136Z,19.60
2022-09-10T17:11:52.574Z,19.60
2022-09-10T17:14:19.794Z,19.60
2022-09-10T17:16:48.200Z,19.60
2022-09-10T17:19:18.629Z,19.60
2022-09-10T17:21:53.200Z,19.60
2022-09-10T17:24:23.012Z,19.50
2022-09-10T17:26:51.699Z,19.60
2022-09-10T17:29:24.463Z,19.50
2022-09-10T17:31:58.605Z,19.50
2022-09-10T17:34:27.230Z,19.50
2022-09-10T17:36:54.499Z,19.50
2022-09-10T17:39:21.912Z,19.50
2022-09-10T17:41:48.959Z,19.50
2022-09-10T17:44:16.822Z,19.50
2022-09-10T17:46:45.119Z,19.50
2022-09-10T17:49:15.763Z,19.50
2022-09-10T17:51:43.943Z,19.50
2022-09-10T17:54:11.425Z,19.50
2022-09-10T17:56:38.572Z,19.50
2022-09-10T17:59:06.168Z,19.50
2022-09-10T18:01:39.600Z,19.50
2022-09-10T18:04:08.300Z,19.50
2022-09-10T18:06:39.007Z,19.40
2022-09-10T18:09:07.492Z,19.40
2022-09-10T18:11:40.340Z,19.40
2022-09-10T18:14:08.349Z,19.40
2022-09-10T18:16:36.618Z,19.40
2022-09-10T18:19:13.816Z,19.40
2022-09-10T18:21:46.396Z,19.40
2022-09-10T18:24:16.983Z,19.30
2022-09-10T18:26:46.634Z,19.40
2022-09-10T18:29:19.166Z,19.30
2022-09-10T18:31:52.115Z,19.30
2022-09-10T18:34:23.885Z,19.30
2022-09-10T18:36:54.459Z,19.30
2022-09-10T18:39:22.746Z,19.30
2022-09-10T18:41:49.934Z,19.40
2022-09-10T18:44:23.040Z,19.50
2022-09-10T18:46:52.814Z,19.50
2022-09-10T18:49:21.951Z,19.50
2022-09-10T18:51:50.079Z,19.60
2022-09-10T18:54:18.228Z,19.60
2022-09-10T18:56:47.615Z,19.70
2022-09-10T18:59:20.275Z,19.70
2022-09-10T19:01:48.979Z,19.70
2022-09-10T19:04:20.160Z,19.70
2022-09-10T19:06:48.775Z,19.80
2022-09-10T19:09:24.354Z,19.70
2022-09-10T19:11:55.776Z,19.80
2022-09-10T19:14:31.120Z,19.80
2022-09-10T19:17:00.523Z,19.80
2022-09-10T19:19:30.452Z,19.80
2022-09-10T19:22:01.181Z,19.80
2022-09-10T19:24:51.027Z,19.80
2022-09-10T19:27:15.669Z,19.80
2022-09-10T19:29:43.246Z,19.80
2022-09-10T19:32:11.481Z,19.80
2022-09-10T19:34:39.147Z,19.80
2022-09-10T19:37:07.295Z,19.80
2022-09-10T19:39:34.628Z,19.80
2022-09-10T19:42:01.790Z,19.80
2022-09-10T19:44:28.911Z,19.80
2022-09-10T19:46:56.058Z,19.80
2022-09-10T19:49:23.189Z,19.80
2022-09-10T19:51:50.359Z,19.80
2022-09-10T19:54:17.536Z,19.80
2022-09-10T19:56:44.673Z,19.80
2022-09-10T19:59:11.930Z,19.80
2022-09-10T20:01:41.733Z,19.80
2022-09-10T20:04:11.037Z,19.80
2022-09-10T20:06:39.051Z,19.80
2022-09-10T20:09:09.922Z,19.80
2022-09-10T20:11:37.461Z,19.70
2022-09-10T20:14:13.411Z,19.80
2022-09-10T20:16:44.934Z,19.70
2022-09-10T20:19:18.515Z,19.70
2022-09-10T20:21:47.752Z,19.70
2022-09-10T20:24:16.070Z,19.70
2022-09-10T20:26:44.327Z,19.70
2022-09-10T20:29:19.403Z,19.70
2022-09-10T20:31:47.259Z,19.70
2022-09-10T20:34:20.282Z,19.70
2022-09-10T20:36:50.401Z,19.60
2022-09-10T20:39:19.930Z,19.60
2022-09-10T20:41:47.223Z,19.60
2022-09-10T20:44:16.658Z,19.60
2022-09-10T20:46:44.334Z,19.60
2022-09-10T20:49:12.802Z,19.60
2022-09-10T20:51:40.873Z,19.60
2022-09-10T20:54:16.211Z,19.60
2022-09-10T20:56:43.834Z,19.60
2022-09-10T20:59:16.104Z,19.50
2022-09-10T21:01:46.051Z,19.50
2022-09-10T21:04:13.837Z,19.50
2022-09-10T21:06:40.957Z,19.50
2022-09-10T21:09:08.116Z,19.50
2022-09-10T21:11:41.249Z,19.50
2022-09-10T21:14:08.965Z,19.50
2022-09-10T21:16:41.316Z,19.40
2022-09-10T21:19:14.413Z,19.50
2022-09-10T21:21:42.687Z,19.50
2022-09-10T21:24:18.685Z,19.40
2022-09-10T21:26:45.800Z,19.40
2022-09-10T21:29:18.051Z,19.40
2022-09-10T21:31:45.741Z,19.40
2022-09-10T21:34:13.684Z,19.40
2022-09-10T21:36:43.924Z,19.40
2022-09-10T21:39:19.918Z,19.30
2022-09-10T21:41:49.954Z,19.30
2022-09-10T21:44:23.008Z,19.40
2022-09-10T21:46:51.241Z,19.30
2022-09-10T21:49:19.270Z,19.30
2022-09-10T21:51:46.784Z,19.30
2022-09-10T21:54:17.175Z,19.30
2022-09-10T21:56:44.597Z,19.30
2022-09-10T21:59:12.699Z,19.30
2022-09-10T22:01:42.180Z,19.30
2022-09-10T22:04:10.719Z,19.20
2022-09-10T22:06:37.908Z,19.20
2022-09-10T22:09:07.936Z,19.20
2022-09-10T22:11:41.932Z,19.20
2022-09-10T22:14:21.448Z,19.20
2022-09-10T22:16:49.123Z,19.10
2022-09-10T22:19:18.779Z,19.20
2022-09-10T22:21:46.394Z,19.10
2022-09-10T22:24:15.052Z,19.20
2022-09-10T22:26:44.538Z,19.10
2022-09-10T22:29:12.711Z,19.10
2022-09-10T22:31:39.908Z,19.10
2022-09-10T22:34:10.906Z,19.10
2022-09-10T22:36:40.236Z,19.10
2022-09-10T22:39:21.144Z,19.00
2022-09-10T22:41:49.630Z,19.10
2022-09-10T22:44:20.423Z,19.00
2022-09-10T22:46:47.884Z,19.00
2022-09-10T22:49:16.222Z,19.00
2022-09-10T22:51:43.481Z,19.00
2022-09-10T22:54:11.336Z,19.00
2022-09-10T22:56:39.702Z,19.00
2022-09-10T22:59:07.529Z,18.90
2022-09-10T23:01:37.154Z,18.90
2022-09-10T23:04:05.855Z,18.90
2022-09-10T23:06:34.952Z,18.90
2022-09-10T23:09:05.340Z,18.90
2022-09-10T23:11:33.489Z,18.90
2022-09-10T23:14:03.553Z,18.90
2022-09-10T23:16:41.997Z,18.90
2022-09-10T23:19:15.307Z,18.90
2022-09-10T23:21:45.712Z,18.80
2022-09-10T23:24:19.263Z,18.80
2022-09-10T23:26:46.724Z,18.80
2022-09-10T23:29:17.478Z,18.70
2022-09-10T23:31:46.101Z,18.70
2022-09-10T23:34:16.252Z,18.70
2022-09-10T23:36:45.547Z,18.70
2022-09-10T23:39:14.038Z,18.70
2022-09-10T23:41:41.898Z,18.70
2022-09-10T23:44:09.936Z,18.60
2022-09-10T23:46:37.222Z,18.60
2022-09-10T23:49:05.370Z,18.60
2022-09-10T23:51:32.486Z,18.60
2022-09-10T23:54:00.021Z,18.50
2022-09-10T23:56:28.535Z,18.60
2022-09-10T23:58:59.366Z,18.50
